Time;durP1;ratioP1;P1;durP2;ratioP2;P2;SDS_P1;SDS_P2;PMS_P1;PMS_P2;Temp;Humidity;BMP_temperature;BMP_pressure;BME280_temperature;BME280_humidity;BME280_pressure;Samples;Min_cycle;Max_cycle;Signal;HPM_P1;HPM_P2
2022/03/31 00:01:14;;;;;;;16.53;13.60;;;6.10;1.00;;;;;;5019600;28;20460;-60
2022/03/31 00:03:41;;;;;;;19.73;14.17;;;6.10;1.00;;;;;;5019748;28;20502;-59
2022/03/31 00:06:11;;;;;;;18.10;14.47;;;6.10;1.00;;;;;;5020766;28;20487;-61
2022/03/31 00:08:38;;;;;;;14.70;13.07;;;6.00;1.00;;;;;;5019938;28;20515;-60
2022/03/31 00:11:05;;;;;;;14.47;12.97;;;6.00;1.00;;;;;;5019871;28;20514;-59
2022/03/31 00:13:41;;;;;;;17.43;13.23;;;6.00;1.00;;;;;;5033663;28;20491;-60
2022/03/31 00:16:11;;;;;;;20.80;13.77;;;6.00;1.00;;;;;;5025379;28;20468;-60
2022/03/31 00:18:38;;;;;;;16.13;12.73;;;5.90;1.00;;;;;;5019240;28;20470;-60
2022/03/31 00:21:09;;;;;;;16.63;13.50;;;5.90;1.00;;;;;;5019569;28;20746;-60
2022/03/31 00:23:36;;;;;;;19.57;14.70;;;5.90;1.00;;;;;;5019702;28;20474;-61
2022/03/31 00:26:03;;;;;;;16.97;12.90;;;5.90;1.00;;;;;;5028002;28;20913;-60
2022/03/31 00:28:34;;;;;;;14.80;13.30;;;5.80;1.00;;;;;;5039248;28;20542;-61
2022/03/31 00:31:01;;;;;;;17.73;14.23;;;5.80;1.00;;;;;;5024572;28;20489;-60
2022/03/31 00:33:31;;;;;;;17.40;14.30;;;5.80;1.00;;;;;;5019695;28;20547;-60
2022/03/31 00:36:07;;;;;;;14.97;13.27;;;5.80;1.00;;;;;;5023408;28;20491;-60
2022/03/31 00:38:36;;;;;;;20.37;15.17;;;5.80;1.00;;;;;;5038899;28;20470;-59
2022/03/31 00:41:05;;;;;;;17.90;13.70;;;5.80;1.00;;;;;;5038457;28;20546;-60
2022/03/31 00:43:33;;;;;;;15.87;14.27;;;5.70;1.00;;;;;;5038776;28;20510;-60
2022/03/31 00:46:07;;;;;;;17.10;15.13;;;5.70;1.00;;;;;;5037499;28;20467;-61
2022/03/31 00:48:40;;;;;;;19.53;16.13;;;5.80;1.00;;;;;;5018529;28;20804;-60
2022/03/31 00:51:09;;;;;;;15.83;14.00;;;5.70;1.00;;;;;;5025821;28;20776;-60
2022/03/31 00:53:36;;;;;;;19.97;15.80;;;5.70;1.00;;;;;;5038617;28;20557;-61
2022/03/31 00:56:19;;;;;;;15.83;14.10;;;5.70;1.00;;;;;;5038409;28;20498;-60
2022/03/31 00:58:52;;;;;;;20.97;14.50;;;5.70;1.00;;;;;;5018254;28;20464;-60
2022/03/31 01:01:20;;;;;;;19.33;13.87;;;5.70;1.00;;;;;;5018797;28;20841;-60
2022/03/31 01:03:50;;;;;;;15.07;13.57;;;5.60;1.00;;;;;;5018680;28;20558;-61
2022/03/31 01:06:20;;;;;;;16.50;14.20;;;5.70;1.00;;;;;;5018647;28;20586;-62
2022/03/31 01:08:47;;;;;;;20.87;14.57;;;5.70;1.00;;;;;;5033863;28;20467;-62
2022/03/31 01:11:21;;;;;;;22.33;13.40;;;5.60;1.00;;;;;;5037940;28;20771;-66
2022/03/31 01:13:51;;;;;;;21.00;15.50;;;5.60;1.00;;;;;;5037928;28;20466;-62
2022/03/31 01:16:29;;;;;;;19.40;14.93;;;5.50;1.00;;;;;;5038737;28;20529;-63
2022/03/31 01:19:49;;;;;;;16.90;13.93;;;5.40;1.00;;;;;;5023627;28;20464;-62
2022/03/31 01:22:20;;;;;;;19.93;15.30;;;5.40;1.00;;;;;;5018472;28;20464;-62
2022/03/31 01:24:52;;;;;;;21.83;14.70;;;5.40;1.00;;;;;;5018311;28;20468;-62
2022/03/31 01:27:22;;;;;;;19.20;14.87;;;5.40;2.90;;;;;;5018313;28;20459;-63
2022/03/31 01:29:49;;;;;;;17.00;15.13;;;5.40;26.20;;;;;;5033241;28;20456;-63
2022/03/31 01:32:27;;;;;;;17.90;16.00;;;5.40;59.00;;;;;;5037583;28;20501;-63
2022/03/31 01:34:54;;;;;;;21.00;16.10;;;5.40;78.80;;;;;;5037939;28;20463;-63
2022/03/31 01:37:21;;;;;;;18.60;15.83;;;5.30;66.70;;;;;;5037851;28;20470;-63
2022/03/31 01:39:52;;;;;;;20.20;15.80;;;5.30;91.50;;;;;;5035884;28;20821;-64
2022/03/31 01:42:19;;;;;;;18.80;15.50;;;5.30;98.60;;;;;;5037970;28;20875;-65
2022/03/31 01:44:46;;;;;;;17.97;15.67;;;5.30;99.90;;;;;;5036937;28;20499;-64
2022/03/31 01:47:15;;;;;;;18.90;16.30;;;5.20;99.90;;;;;;5038058;28;20491;-65
2022/03/31 01:49:48;;;;;;;18.67;16.53;;;5.20;99.90;;;;;;5027829;28;20464;-64
2022/03/31 01:52:14;;;;;;;26.60;17.30;;;5.20;99.90;;;;;;5018107;28;20512;-63
2022/03/31 01:54:42;;;;;;;23.33;17.93;;;5.10;99.90;;;;;;5017279;28;20466;-63
2022/03/31 01:57:13;;;;;;;22.60;17.37;;;5.20;99.90;;;;;;5017949;28;20464;-63
2022/03/31 01:59:42;;;;;;;18.93;16.90;;;5.10;99.90;;;;;;5020845;28;20465;-63
2022/03/31 02:03:06;;;;;;;21.73;17.70;;;5.20;99.90;;;;;;5036888;28;20887;-64
2022/03/31 02:05:33;;;;;;;22.30;17.97;;;5.20;99.90;;;;;;5036874;28;21034;-64
2022/03/31 02:08:00;;;;;;;19.80;17.40;;;5.20;99.90;;;;;;5037312;28;20498;-64
2022/03/31 02:10:30;;;;;;;22.13;19.40;;;5.10;99.90;;;;;;5029153;28;20499;-64
2022/03/31 02:13:00;;;;;;;22.90;17.30;;;5.10;99.90;;;;;;5017882;28;20529;-63
2022/03/31 02:15:30;;;;;;;24.33;18.10;;;5.20;1.00;;;;;;5033357;28;20474;-63
2022/03/31 02:18:01;;;;;;;18.77;16.77;;;5.10;1.00;;;;;;5037387;28;20895;-64
2022/03/31 02:20:42;;;;;;;25.03;18.53;;;5.20;1.00;;;;;;5037109;28;20502;-64
2022/03/31 02:23:19;;;;;;;24.77;19.17;;;5.20;1.00;;;;;;5037220;28;20459;-64
2022/03/31 02:25:50;;;;;;;27.93;18.73;;;5.20;15.50;;;;;;5022850;28;20493;-65
2022/03/31 02:28:18;;;;;;;24.13;19.57;;;5.20;90.20;;;;;;5017416;28;20518;-64
2022/03/31 02:30:45;;;;;;;20.70;18.47;;;5.20;1.00;;;;;;5036974;28;20561;-64
2022/03/31 02:33:17;;;;;;;26.80;20.17;;;5.20;1.00;;;;;;5037043;28;20553;-63
2022/03/31 02:35:46;;;;;;;24.53;19.60;;;5.20;1.00;;;;;;5035568;28;20561;-63
2022/03/31 02:38:16;;;;;;;26.60;20.83;;;5.20;88.70;;;;;;5037138;28;20486;-63
2022/03/31 02:40:49;;;;;;;24.87;19.93;;;5.20;99.90;;;;;;5035773;28;20892;-64
2022/03/31 02:43:16;;;;;;;24.63;19.33;;;5.20;99.90;;;;;;5037042;28;20513;-64
2022/03/31 02:45:44;;;;;;;23.90;20.20;;;5.20;1.00;;;;;;5030605;28;20488;-64
2022/03/31 02:48:21;;;;;;;26.00;20.03;;;5.30;1.00;;;;;;5017908;28;20464;-64
2022/03/31 02:50:49;;;;;;;29.10;20.70;;;5.20;20.40;;;;;;5017019;28;20467;-63
2022/03/31 02:56:04;;;;;;;28.33;20.50;;;5.30;4.60;;;;;;5021405;28;20501;-63
2022/03/31 02:58:31;;;;;;;21.53;18.47;;;5.30;1.00;;;;;;5036191;28;20834;-64
2022/03/31 03:01:02;;;;;;;25.20;18.40;;;5.20;99.90;;;;;;5036550;28;20512;-64
2022/03/31 03:03:32;;;;;;;22.00;19.10;;;5.20;99.90;;;;;;5036846;28;20728;-64
2022/03/31 03:05:59;;;;;;;29.00;20.70;;;5.20;99.90;;;;;;5035731;28;20467;-63
2022/03/31 03:08:27;;;;;;;22.27;18.03;;;5.20;1.00;;;;;;5016486;28;20495;-64
2022/03/31 03:11:03;;;;;;;23.20;16.43;;;5.20;1.00;;;;;;5016979;28;20464;-63
2022/03/31 03:13:32;;;;;;;25.67;18.13;;;5.30;99.90;;;;;;5020628;28;20502;-63
2022/03/31 03:16:08;;;;;;;20.50;16.57;;;5.30;99.90;;;;;;5020348;28;20542;-63
2022/03/31 03:18:35;;;;;;;18.77;15.37;;;5.30;99.90;;;;;;5037905;28;20561;-63
2022/03/31 03:21:04;;;;;;;19.57;14.20;;;5.30;3.00;;;;;;5040103;28;20474;-63
2022/03/31 03:23:36;;;;;;;21.10;14.27;;;5.30;1.00;;;;;;5040418;28;20864;-63
2022/03/31 03:26:03;;;;;;;20.40;14.20;;;5.30;52.10;;;;;;5040399;28;20489;-63
2022/03/31 03:28:34;;;;;;;24.10;13.60;;;5.20;99.90;;;;;;5025959;28;20903;-63
2022/03/31 03:31:03;;;;;;;24.47;14.50;;;5.20;1.00;;;;;;5020246;28;20480;-63
2022/03/31 03:33:32;;;;;;;20.30;13.43;;;5.20;1.00;;;;;;5020347;28;20987;-63
2022/03/31 03:36:00;;;;;;;22.60;15.30;;;5.20;1.00;;;;;;5020870;28;20515;-63
2022/03/31 03:38:32;;;;;;;21.80;13.63;;;5.10;1.00;;;;;;5028209;28;20559;-63
2022/03/31 03:41:05;;;;;;;19.33;13.63;;;5.10;1.00;;;;;;5040029;28;20797;-63
2022/03/31 03:43:32;;;;;;;19.10;15.07;;;5.10;1.00;;;;;;5039883;28;20459;-63
2022/03/31 03:46:01;;;;;;;19.07;13.33;;;5.00;1.00;;;;;;5040130;28;20562;-63
2022/03/31 03:48:30;;;;;;;21.60;14.37;;;4.90;1.00;;;;;;5033724;28;20471;-63
2022/03/31 03:51:00;;;;;;;19.40;13.03;;;4.90;1.00;;;;;;5020027;28;20475;-63
2022/03/31 03:53:31;;;;;;;20.70;13.30;;;4.80;99.90;;;;;;5019705;28;20927;-63
2022/03/31 03:56:00;;;;;;;16.67;12.70;;;4.80;99.90;;;;;;5020236;28;20478;-63
2022/03/31 03:58:35;;;;;;;24.07;13.03;;;4.80;99.90;;;;;;5020658;28;21096;-63
2022/03/31 04:01:10;;;;;;;19.00;13.90;;;4.80;99.90;;;;;;5037637;28;20493;-63
2022/03/31 04:03:41;;;;;;;20.30;14.13;;;4.80;99.90;;;;;;5039369;28;20553;-63
2022/03/31 04:06:14;;;;;;;17.67;13.70;;;4.80;99.90;;;;;;5039497;28;20536;-63
2022/03/31 04:08:43;;;;;;;18.07;14.17;;;4.80;99.90;;;;;;5038565;28;20554;-63
2022/03/31 04:11:13;;;;;;;20.27;13.53;;;4.80;99.90;;;;;;5033210;28;20887;-63
2022/03/31 04:13:46;;;;;;;17.63;13.00;;;4.80;1.00;;;;;;5037834;28;20496;-63
2022/03/31 04:16:20;;;;;;;19.53;14.17;;;4.80;1.00;;;;;;5039122;28;20469;-63
2022/03/31 04:18:54;;;;;;;19.20;14.17;;;4.90;1.00;;;;;;5039065;28;20514;-63
2022/03/31 04:21:24;;;;;;;16.77;12.87;;;4.90;1.00;;;;;;5020953;28;20909;-63
2022/03/31 04:23:51;;;;;;;16.93;12.80;;;4.80;1.00;;;;;;5018497;28;20456;-63
2022/03/31 04:26:23;;;;;;;19.17;14.47;;;4.80;1.00;;;;;;5037412;28;20498;-63
2022/03/31 04:28:50;;;;;;;18.03;14.80;;;4.80;38.30;;;;;;5034449;28;20514;-64
2022/03/31 04:31:17;;;;;;;22.70;15.30;;;4.80;99.90;;;;;;5025684;28;20452;-64
2022/03/31 04:33:47;;;;;;;19.10;13.73;;;4.90;99.90;;;;;;5024488;28;20523;-63
2022/03/31 04:36:18;;;;;;;23.07;14.50;;;4.90;99.90;;;;;;5026607;28;20573;-64
2022/03/31 04:38:53;;;;;;;20.27;14.70;;;4.90;99.90;;;;;;5027112;28;20471;-63
2022/03/31 04:41:23;;;;;;;21.33;15.47;;;4.90;99.90;;;;;;5025021;28;20498;-63
2022/03/31 04:43:54;;;;;;;22.63;15.33;;;4.90;1.00;;;;;;5025597;28;20533;-63
2022/03/31 04:46:21;;;;;;;20.40;15.80;;;4.90;1.00;;;;;;5024139;28;20518;-63
2022/03/31 04:48:51;;;;;;;24.17;15.67;;;4.90;1.00;;;;;;5024987;28;20522;-63
2022/03/31 04:51:25;;;;;;;22.93;15.30;;;4.90;7.30;;;;;;5026196;28;20498;-63
2022/03/31 04:54:03;;;;;;;20.40;15.07;;;4.90;99.90;;;;;;5026205;28;20520;-63
2022/03/31 04:56:33;;;;;;;21.33;14.33;;;4.90;65.00;;;;;;5026733;28;20821;-63
2022/03/31 04:59:00;;;;;;;19.77;14.60;;;4.90;99.90;;;;;;5027147;28;20462;-63
2022/03/31 05:01:29;;;;;;;23.80;15.80;;;4.90;1.00;;;;;;5023364;28;20867;-63
2022/03/31 05:04:03;;;;;;;23.67;16.30;;;4.90;99.90;;;;;;5024119;28;20511;-63
2022/03/31 05:06:37;;;;;;;23.40;15.23;;;4.90;1.00;;;;;;5023097;28;20868;-62
2022/03/31 05:09:11;;;;;;;25.00;16.47;;;4.90;1.00;;;;;;5026836;28;20509;-62
2022/03/31 05:11:38;;;;;;;23.77;16.30;;;4.90;1.00;;;;;;5025207;28;20536;-62
2022/03/31 05:14:05;;;;;;;24.07;16.40;;;5.00;34.40;;;;;;5027099;28;20553;-62
2022/03/31 05:16:32;;;;;;;21.40;15.80;;;5.00;99.90;;;;;;5021769;28;20461;-62
2022/03/31 05:18:59;;;;;;;23.33;15.93;;;4.90;99.90;;;;;;5028466;28;20463;-62
2022/03/31 05:21:28;;;;;;;27.63;18.50;;;4.90;1.00;;;;;;5024126;28;20887;-62
2022/03/31 05:24:02;;;;;;;25.73;16.27;;;5.00;1.00;;;;;;5025863;28;20538;-62
2022/03/31 05:26:29;;;;;;;24.80;16.30;;;4.90;6.50;;;;;;5025140;28;20842;-63
2022/03/31 05:28:58;;;;;;;25.33;17.70;;;5.00;99.90;;;;;;5024595;28;20471;-63
2022/03/31 05:31:25;;;;;;;25.70;17.03;;;5.00;1.00;;;;;;5017345;28;20833;-63
2022/03/31 05:33:52;;;;;;;19.00;14.70;;;5.00;1.00;;;;;;5021208;28;20549;-61
2022/03/31 05:36:19;;;;;;;23.30;15.77;;;5.00;1.00;;;;;;5020638;28;20513;-61
2022/03/31 05:38:49;;;;;;;22.63;16.27;;;5.10;99.90;;;;;;5028571;28;20471;-60
2022/03/31 05:41:23;;;;;;;24.20;16.00;;;5.10;93.20;;;;;;5018218;28;20523;-60
2022/03/31 05:43:50;;;;;;;29.20;17.33;;;5.20;1.00;;;;;;5032613;28;20486;-60
2022/03/31 05:46:21;;;;;;;23.20;16.03;;;5.20;1.00;;;;;;5031841;28;20483;-60
2022/03/31 05:48:52;;;;;;;24.90;15.53;;;5.20;99.90;;;;;;5036869;28;20788;-60
2022/03/31 05:51:20;;;;;;;21.40;15.50;;;5.20;1.00;;;;;;5036001;28;20467;-60
2022/03/31 05:53:50;;;;;;;22.17;14.50;;;5.20;1.00;;;;;;5016781;28;20491;-60
2022/03/31 05:56:20;;;;;;;25.83;16.57;;;5.20;24.90;;;;;;5018139;28;20514;-60
2022/03/31 05:58:52;;;;;;;20.93;15.63;;;5.30;1.00;;;;;;5015411;28;20478;-60
2022/03/31 06:01:22;;;;;;;21.77;15.97;;;5.30;99.90;;;;;;5016654;28;20814;-58
2022/03/31 06:03:49;;;;;;;24.83;14.80;;;5.30;25.70;;;;;;5016720;28;20746;-60
2022/03/31 06:06:20;;;;;;;26.27;15.17;;;5.30;1.00;;;;;;5028460;28;20540;-59
2022/03/31 06:08:53;;;;;;;21.90;14.60;;;5.30;1.00;;;;;;5022491;28;20864;-59
2022/03/31 06:11:24;;;;;;;19.13;13.93;;;5.30;1.00;;;;;;5032434;28;20790;-60
2022/03/31 06:13:53;;;;;;;23.77;15.97;;;5.30;99.90;;;;;;5020053;28;20519;-59
2022/03/31 06:16:20;;;;;;;22.10;15.33;;;5.30;99.90;;;;;;5037381;28;20589;-59
2022/03/31 06:18:50;;;;;;;21.33;14.70;;;5.30;99.90;;;;;;5035157;28;20471;-60
2022/03/31 06:21:25;;;;;;;23.70;17.13;;;5.30;99.90;;;;;;5037178;28;20517;-60
2022/03/31 06:23:54;;;;;;;20.63;15.37;;;5.40;1.00;;;;;;5037018;28;20463;-59
2022/03/31 06:26:23;;;;;;;22.83;15.90;;;5.40;1.00;;;;;;5016922;28;20572;-60
2022/03/31 06:28:50;;;;;;;24.37;16.20;;;5.40;1.00;;;;;;5021496;28;20805;-60
2022/03/31 06:31:22;;;;;;;19.07;15.80;;;5.30;99.90;;;;;;5016872;28;20542;-59
2022/03/31 06:33:50;;;;;;;20.97;14.60;;;5.40;99.90;;;;;;5016406;28;20989;-59
2022/03/31 06:36:17;;;;;;;23.60;15.33;;;5.40;99.90;;;;;;5016262;28;20469;-60
2022/03/31 06:38:49;;;;;;;21.77;14.43;;;5.40;84.20;;;;;;5016726;28;20472;-60
2022/03/31 06:41:24;;;;;;;18.40;14.20;;;5.50;19.70;;;;;;5032478;28;20789;-60
2022/03/31 06:43:53;;;;;;;22.37;15.90;;;5.40;1.00;;;;;;5017147;28;20548;-60
2022/03/31 06:46:22;;;;;;;23.90;15.27;;;5.50;1.00;;;;;;5017663;28;20889;-60
2022/03/31 06:48:50;;;;;;;22.47;14.43;;;5.50;1.00;;;;;;5020832;28;20470;-60
2022/03/31 06:51:21;;;;;;;23.90;15.53;;;5.50;1.00;;;;;;5035828;28;20442;-60
2022/03/31 06:53:48;;;;;;;21.93;15.27;;;5.50;1.00;;;;;;5027750;28;20523;-61
2022/03/31 06:56:21;;;;;;;17.67;13.50;;;5.50;1.00;;;;;;5031742;28;20550;-60
2022/03/31 06:58:52;;;;;;;19.47;13.67;;;5.60;1.00;;;;;;5020345;28;20512;-60
2022/03/31 07:01:24;;;;;;;22.47;14.87;;;5.70;1.00;;;;;;5033306;28;20469;-61
2022/03/31 07:03:52;;;;;;;25.27;14.00;;;5.70;1.00;;;;;;5036346;28;21887;-61
2022/03/31 07:06:20;;;;;;;21.20;16.00;;;5.60;1.00;;;;;;5033073;28;20471;-61
2022/03/31 07:08:47;;;;;;;21.50;14.47;;;5.50;99.90;;;;;;5021898;28;20965;-60
2022/03/31 07:11:19;;;;;;;21.03;13.43;;;5.60;1.00;;;;;;5029243;28;20470;-60
2022/03/31 07:13:48;;;;;;;18.97;14.83;;;5.50;99.90;;;;;;5029149;28;20589;-61
2022/03/31 07:16:17;;;;;;;22.10;15.80;;;5.50;1.00;;;;;;5022352;28;20472;-61
2022/03/31 07:18:45;;;;;;;22.70;16.70;;;5.60;1.00;;;;;;5026801;28;20471;-60
2022/03/31 07:21:14;;;;;;;24.50;17.27;;;5.60;1.00;;;;;;5028051;28;20463;-60
2022/03/31 07:23:47;;;;;;;23.63;16.57;;;5.60;1.00;;;;;;5023013;28;20468;-60
2022/03/31 07:26:16;;;;;;;19.50;15.47;;;5.60;99.90;;;;;;5019241;28;20490;-60
2022/03/31 07:28:43;;;;;;;24.87;17.37;;;5.70;1.00;;;;;;5022784;28;20953;-60
2022/03/31 07:31:13;;;;;;;28.23;16.50;;;5.70;1.00;;;;;;5034455;28;20467;-60
2022/03/31 07:33:46;;;;;;;21.10;15.40;;;5.80;99.90;;;;;;5019498;28;20600;-60
2022/03/31 07:36:20;;;;;;;23.30;16.17;;;5.80;99.90;;;;;;5020146;28;20503;-59
2022/03/31 07:38:52;;;;;;;18.30;14.23;;;5.90;1.00;;;;;;5018749;28;20503;-59
2022/03/31 07:41:26;;;;;;;24.43;15.10;;;5.90;99.90;;;;;;5034276;28;20565;-60
2022/03/31 07:43:59;;;;;;;22.17;14.80;;;5.90;99.90;;;;;;5032906;28;20888;-59
2022/03/31 07:46:29;;;;;;;19.63;14.90;;;5.90;99.90;;;;;;5025828;28;20477;-59
2022/03/31 07:49:01;;;;;;;23.47;16.47;;;6.00;99.90;;;;;;5030557;28;20466;-59
2022/03/31 07:51:29;;;;;;;23.00;14.57;;;6.00;99.90;;;;;;5037898;28;20475;-59
2022/03/31 07:53:56;;;;;;;23.50;15.70;;;6.00;99.90;;;;;;5020047;28;20581;-60
2022/03/31 07:56:23;;;;;;;23.77;14.87;;;6.20;99.90;;;;;;5020112;28;20941;-59
2022/03/31 07:58:53;;;;;;;22.20;16.30;;;6.30;99.90;;;;;;5030904;28;20504;-60
2022/03/31 08:01:22;;;;;;;21.43;14.93;;;6.40;99.90;;;;;;5026851;28;20474;-61
2022/03/31 08:03:52;;;;;;;18.80;15.03;;;6.40;99.90;;;;;;5021308;28;20468;-61
2022/03/31 08:06:22;;;;;;;19.17;13.03;;;6.50;99.90;;;;;;5029457;28;20475;-61
2022/03/31 08:08:49;;;;;;;19.33;13.90;;;6.50;99.90;;;;;;5034200;28;20788;-60
2022/03/31 08:11:17;;;;;;;18.10;15.27;;;6.50;99.90;;;;;;5018734;28;20527;-61
2022/03/31 08:13:51;;;;;;;18.00;13.53;;;6.60;99.90;;;;;;5025733;28;20934;-61
2022/03/31 08:16:25;;;;;;;17.93;14.37;;;6.60;99.90;;;;;;5039391;28;20477;-61
2022/03/31 08:18:55;;;;;;;20.30;14.23;;;6.60;99.90;;;;;;5029111;28;20468;-62
2022/03/31 08:21:26;;;;;;;17.30;14.27;;;6.50;99.90;;;;;;5038351;28;20463;-62
2022/03/31 08:23:53;;;;;;;14.70;12.47;;;6.40;99.90;;;;;;5034776;28;20518;-62
2022/03/31 08:26:25;;;;;;;21.47;13.67;;;6.50;99.90;;;;;;5038924;28;20565;-62
2022/03/31 08:28:56;;;;;;;19.63;13.00;;;6.40;99.90;;;;;;5038416;28;20464;-62
2022/03/31 08:31:25;;;;;;;20.60;14.07;;;6.30;99.90;;;;;;5021957;28;20464;-63
2022/03/31 08:33:53;;;;;;;16.17;11.97;;;6.30;99.90;;;;;;5019019;28;20523;-63
2022/03/31 08:36:20;;;;;;;19.63;14.10;;;6.30;99.90;;;;;;5039187;28;20815;-62
2022/03/31 08:38:54;;;;;;;18.07;13.57;;;6.40;99.90;;;;;;5038592;28;20787;-62
2022/03/31 08:41:37;;;;;;;20.23;14.90;;;6.40;99.90;;;;;;5028808;28;20503;-63
2022/03/31 08:44:05;;;;;;;23.10;14.93;;;6.50;99.90;;;;;;5035438;28;20901;-63
2022/03/31 08:46:34;;;;;;;21.47;15.50;;;6.40;99.90;;;;;;5036372;28;20502;-63
2022/03/31 08:49:06;;;;;;;19.87;14.17;;;6.50;99.90;;;;;;5035459;28;20537;-63
2022/03/31 08:51:37;;;;;;;20.87;13.57;;;6.40;99.90;;;;;;5031223;28;20456;-64
2022/03/31 08:54:11;;;;;;;16.70;13.63;;;6.30;99.90;;;;;;5032304;28;20982;-63
2022/03/31 08:56:44;;;;;;;23.10;16.47;;;6.30;99.90;;;;;;5036309;28;20477;-63
2022/03/31 08:59:14;;;;;;;23.37;15.90;;;6.40;99.90;;;;;;5036686;28;20871;-63
2022/03/31 09:01:41;;;;;;;17.33;14.97;;;6.40;99.90;;;;;;5026664;28;20973;-64
2022/03/31 09:04:18;;;;;;;20.90;14.17;;;6.30;99.90;;;;;;5019684;28;20518;-64
2022/03/31 09:06:48;;;;;;;20.73;15.07;;;6.30;99.90;;;;;;5028513;28;20504;-64
2022/03/31 09:09:18;;;;;;;23.30;16.70;;;6.30;99.90;;;;;;5036790;28;20517;-64
2022/03/31 09:11:46;;;;;;;20.67;15.83;;;6.20;92.20;;;;;;5031303;28;20899;-65
2022/03/31 09:14:16;;;;;;;21.77;16.17;;;6.20;99.90;;;;;;5017726;28;20932;-68
2022/03/31 09:16:44;;;;;;;22.63;16.20;;;6.50;99.90;;;;;;5028618;28;20524;-66
2022/03/31 09:19:13;;;;;;;19.30;15.27;;;6.60;99.90;;;;;;5036238;28;20482;-68
2022/03/31 09:21:51;;;;;;;21.83;15.03;;;6.60;96.30;;;;;;5022434;28;20464;-66
2022/03/31 09:24:21;;;;;;;18.33;14.97;;;6.70;59.50;;;;;;5020328;28;20442;-67
2022/03/31 09:26:49;;;;;;;19.13;15.70;;;6.90;76.90;;;;;;5028562;28;20507;-67
2022/03/31 09:29:23;;;;;;;20.07;15.33;;;6.80;35.70;;;;;;5039641;28;20491;-67
2022/03/31 09:31:52;;;;;;;21.07;14.97;;;7.00;35.10;;;;;;5038938;28;20435;-67
2022/03/31 09:34:19;;;;;;;16.87;14.50;;;7.20;61.10;;;;;;5032683;28;20496;-69
2022/03/31 09:36:54;;;;;;;20.33;14.77;;;7.20;30.00;;;;;;5024971;28;20467;-68
2022/03/31 09:39:25;;;;;;;17.40;15.43;;;7.20;1.00;;;;;;5019555;28;20781;-68
2022/03/31 09:42:03;;;;;;;16.57;14.10;;;7.30;1.00;;;;;;5041514;28;21069;-67
2022/03/31 09:44:31;;;;;;;19.00;14.77;;;7.50;1.00;;;;;;5023733;28;20536;-66
2022/03/31 09:47:16;;;;;;;20.40;15.63;;;7.50;1.00;;;;;;5031719;28;20499;-64
2022/03/31 09:49:53;;;;;;;19.27;15.40;;;7.60;1.00;;;;;;5017341;28;20515;-61
2022/03/31 09:52:23;;;;;;;17.83;15.03;;;7.50;1.00;;;;;;5029035;28;20553;-62
2022/03/31 09:54:54;;;;;;;24.13;15.30;;;7.40;1.00;;;;;;5028295;28;20531;-62
2022/03/31 09:57:24;;;;;;;21.80;16.47;;;7.40;1.00;;;;;;5018647;28;20464;-62
2022/03/31 09:59:56;;;;;;;19.70;16.07;;;7.40;1.00;;;;;;5030441;28;20470;-60
2022/03/31 10:02:31;;;;;;;20.73;16.07;;;7.30;8.60;;;;;;5017230;28;20456;-61
2022/03/31 10:04:58;;;;;;;26.70;18.07;;;7.10;14.60;;;;;;5015475;28;20455;-61
2022/03/31 10:07:30;;;;;;;19.23;16.90;;;6.90;40.30;;;;;;5016400;28;20562;-61
2022/03/31 10:10:03;;;;;;;24.30;19.20;;;6.80;99.90;;;;;;5035375;28;20471;-61
2022/03/31 10:12:36;;;;;;;25.30;18.60;;;6.80;99.90;;;;;;5037087;28;20553;-60
2022/03/31 10:15:15;;;;;;;22.10;18.30;;;6.80;99.90;;;;;;5025861;28;20495;-60
2022/03/31 10:17:49;;;;;;;23.20;17.87;;;6.90;99.90;;;;;;5023827;28;20465;-60
2022/03/31 10:20:21;;;;;;;24.80;20.50;;;6.90;99.90;;;;;;5033384;28;20786;-59
2022/03/31 10:25:50;;;;;;;30.50;22.37;;;7.10;99.90;;;;;;5019408;28;20467;-60
2022/03/31 10:28:20;;;;;;;21.43;17.00;;;7.20;99.90;;;;;;5016746;28;20827;-59
2022/03/31 10:30:55;;;;;;;31.00;26.30;;;7.30;99.90;;;;;;5016825;28;20460;-60
2022/03/31 10:33:37;;;;;;;23.90;19.70;;;7.40;99.90;;;;;;5017141;28;20468;-60
2022/03/31 10:36:11;;;;;;;22.30;17.10;;;7.20;25.90;;;;;;5016394;28;20578;-61
2022/03/31 10:38:40;;;;;;;24.17;16.90;;;7.30;52.50;;;;;;5025118;28;20771;-61
2022/03/31 10:41:13;;;;;;;20.37;16.50;;;7.50;26.80;;;;;;5030629;28;20470;-61
2022/03/31 10:43:48;;;;;;;21.60;16.40;;;7.60;19.20;;;;;;5035482;28;20474;-61
2022/03/31 10:46:19;;;;;;;20.27;16.13;;;7.70;22.20;;;;;;5027943;28;20467;-61
2022/03/31 10:48:54;;;;;;;18.37;15.23;;;7.90;40.00;;;;;;5015879;28;20474;-62
2022/03/31 10:51:34;;;;;;;17.67;14.43;;;7.80;1.00;;;;;;5018578;28;20471;-62
2022/03/31 10:54:01;;;;;;;18.70;15.30;;;7.70;1.00;;;;;;5028912;28;20466;-60
2022/03/31 10:56:36;;;;;;;18.40;14.90;;;7.80;1.00;;;;;;5030110;28;20822;-60
2022/03/31 10:59:07;;;;;;;19.20;15.47;;;7.70;5.70;;;;;;5030259;28;20475;-61
2022/03/31 11:01:38;;;;;;;20.20;16.30;;;7.70;8.00;;;;;;5018482;28;20574;-61
2022/03/31 11:04:10;;;;;;;20.33;15.40;;;7.90;28.00;;;;;;5028282;28;20467;-61
2022/03/31 11:07:01;;;;;;;23.47;14.60;;;7.90;8.10;;;;;;5015416;28;20840;-61
2022/03/31 11:09:31;;;;;;;20.30;16.37;;;7.80;1.00;;;;;;5020168;28;20821;-62
2022/03/31 11:12:01;;;;;;;18.50;15.10;;;7.70;1.00;;;;;;5024492;28;20524;-61
2022/03/31 11:14:33;;;;;;;17.33;15.50;;;7.60;1.00;;;;;;5023285;28;20554;-61
2022/03/31 11:17:05;;;;;;;19.10;15.47;;;7.50;1.00;;;;;;5027767;28;20468;-62
2022/03/31 11:19:39;;;;;;;19.30;15.77;;;7.40;1.00;;;;;;5020289;28;20518;-61
2022/03/31 11:22:14;;;;;;;19.63;15.97;;;7.30;1.00;;;;;;5025243;28;20530;-61
2022/03/31 11:24:41;;;;;;;20.77;16.27;;;7.20;42.50;;;;;;5014462;28;20454;-61
2022/03/31 11:27:12;;;;;;;20.33;16.23;;;7.30;55.20;;;;;;5028425;28;20556;-60
2022/03/31 11:29:42;;;;;;;19.23;15.87;;;7.50;44.40;;;;;;5023194;28;20487;-60
2022/03/31 11:32:09;;;;;;;20.70;16.53;;;7.50;25.90;;;;;;5024141;28;20578;-60
2022/03/31 11:34:36;;;;;;;19.03;15.87;;;7.60;30.50;;;;;;5036069;28;20487;-59
2022/03/31 11:37:04;;;;;;;21.47;16.03;;;7.60;40.40;;;;;;5019191;28;20813;-60
2022/03/31 11:39:30;;;;;;;22.33;16.13;;;7.60;15.80;;;;;;5020010;28;20503;-59
2022/03/31 11:42:08;;;;;;;20.73;18.53;;;7.70;1.00;;;;;;5033180;28;20513;-60
2022/03/31 11:44:42;;;;;;;20.23;16.47;;;7.50;1.00;;;;;;5019830;28;20477;-61
2022/03/31 11:47:14;;;;;;;23.00;16.27;;;7.70;1.00;;;;;;5018946;28;20762;-59
2022/03/31 11:49:43;;;;;;;21.80;18.73;;;7.80;1.00;;;;;;5018774;28;20471;-59
2022/03/31 11:52:10;;;;;;;21.83;16.77;;;7.70;1.00;;;;;;5024244;28;20521;-60
2022/03/31 11:54:42;;;;;;;25.00;17.73;;;7.70;1.00;;;;;;5025263;28;20937;-60
2022/03/31 11:57:13;;;;;;;23.13;20.73;;;7.50;1.00;;;;;;5039072;28;20491;-61
2022/03/31 11:59:44;;;;;;;24.23;17.67;;;7.40;1.00;;;;;;5029412;28;20471;-61
2022/03/31 12:02:15;;;;;;;23.57;17.90;;;7.40;3.70;;;;;;5019836;28;20492;-60
2022/03/31 12:04:47;;;;;;;22.97;18.67;;;7.20;1.00;;;;;;5034640;28;20463;-60
2022/03/31 12:07:20;;;;;;;19.93;16.30;;;7.30;26.00;;;;;;5039537;28;20763;-61
2022/03/31 12:09:48;;;;;;;21.73;17.87;;;7.20;1.00;;;;;;5032186;28;20471;-62
2022/03/31 12:12:21;;;;;;;23.77;19.20;;;7.20;47.00;;;;;;5019562;28;20460;-62
2022/03/31 12:14:58;;;;;;;22.03;17.43;;;7.20;46.80;;;;;;5031450;28;20501;-62
2022/03/31 12:17:28;;;;;;;20.70;16.77;;;7.30;25.50;;;;;;5038154;28;20471;-62
2022/03/31 12:19:58;;;;;;;25.20;18.87;;;7.30;33.70;;;;;;5034428;28;20752;-61
2022/03/31 12:22:34;;;;;;;23.40;18.80;;;7.40;13.40;;;;;;5026022;28;20518;-61
2022/03/31 12:25:06;;;;;;;21.60;17.13;;;7.40;1.00;;;;;;5026080;28;20463;-60
2022/03/31 12:27:35;;;;;;;22.23;17.63;;;7.40;1.00;;;;;;5025704;28;20459;-61
2022/03/31 12:30:07;;;;;;;18.30;16.23;;;7.50;1.00;;;;;;5025871;28;20523;-61
2022/03/31 12:32:34;;;;;;;20.77;16.53;;;7.60;1.00;;;;;;5025279;28;20462;-60
2022/03/31 12:35:05;;;;;;;22.07;18.10;;;7.50;1.00;;;;;;5023933;28;20522;-61
2022/03/31 12:37:34;;;;;;;20.37;17.23;;;7.60;1.00;;;;;;5024854;28;20514;-61
2022/03/31 12:40:05;;;;;;;17.37;15.40;;;7.50;1.00;;;;;;5026755;28;20471;-61
2022/03/31 12:42:50;;;;;;;22.30;17.33;;;7.40;1.00;;;;;;5034749;28;20471;-61
2022/03/31 12:45:19;;;;;;;19.27;15.90;;;7.60;11.10;;;;;;5031552;28;20464;-61
2022/03/31 12:47:48;;;;;;;17.77;15.83;;;7.60;1.00;;;;;;5019234;28;20468;-60
2022/03/31 12:50:17;;;;;;;21.00;16.53;;;7.70;1.00;;;;;;5019092;28;20555;-61
2022/03/31 12:53:00;;;;;;;19.90;17.40;;;7.60;1.00;;;;;;5018755;28;20467;-61
2022/03/31 12:55:31;;;;;;;21.67;15.93;;;7.70;1.00;;;;;;5036333;28;20491;-61
2022/03/31 12:58:04;;;;;;;22.13;16.80;;;7.60;1.00;;;;;;5021962;28;20512;-60
2022/03/31 13:00:36;;;;;;;21.83;17.50;;;7.60;1.00;;;;;;5037454;28;20463;-61
2022/03/31 13:03:08;;;;;;;22.43;18.07;;;7.70;1.00;;;;;;5035202;28;20825;-61
2022/03/31 13:05:35;;;;;;;22.70;18.30;;;7.70;1.00;;;;;;5038011;28;20466;-61
2022/03/31 13:08:06;;;;;;;19.20;17.00;;;7.60;4.90;;;;;;5024480;28;20502;-62